Fingerville, South Carolina
Current Conditions -  °F | °C
As of 2:55 PM on Thursday 27 Nov 2014 (Local Time) from KSPA Reporting Station
Clear Clear  
Wind Chill: 52°   Ceiling: Unl
Heat Index: 52°   Visibility: 10mi
Dew Point: 25°   Wind: 17mph
Humidity: 35%   Direction: 330°NNW
Pressure: 30.15"   Gusts: 21mph
Location:  35.13°N, 82.01°W
Report Text: KSPA 271955Z AUTO 33015G18KT 10SM CLR 11/M04 A3015 RMK AO2
Loading
Personal Weather Stations






























Interactive Weather Map New forecast layout! Learn more

10-Day Weather Forecast

Advertisements
Track Severe Weather on mobile